Time;durP1;ratioP1;P1;durP2;ratioP2;P2;SDS_P1;SDS_P2;PMS_P1;PMS_P2;Temp;Humidity;BMP_temperature;BMP_pressure;BME280_temperature;BME280_humidity;BME280_pressure;Samples;Min_cycle;Max_cycle;Signal;HPM_P1;HPM_P2
2021/03/27 00:00:45;;;;;;;34.08;18.42;;;;;;;;;;5012000;28;20091;-57
2021/03/27 00:03:33;;;;;;;33.58;20.60;;;;;;;;;;5011630;28;20030;-58
2021/03/27 00:06:12;;;;;;;32.55;18.35;;;;;;;;;;5006501;28;20038;-58
2021/03/27 00:08:38;;;;;;;;;;;;;;;;;;5011932;28;20137;-57
2021/03/27 00:11:10;;;;;;;29.98;16.63;;;;;;;;;;5011699;28;20004;-57
2021/03/27 00:13:47;;;;;;;31.73;17.25;;;;;;;;;;5010978;28;20030;-61
2021/03/27 00:16:21;;;;;;;27.65;16.90;;;;;;;;;;5010685;28;20068;-57
2021/03/27 00:18:50;;;;;;;28.52;17.90;;;;;;;;;;5010720;28;20546;-57
2021/03/27 00:21:20;;;;;;;27.58;17.00;;;;;;;;;;5016166;28;20042;-58
2021/03/27 00:24:07;;;;;;;26.08;16.20;;;;;;;;;;5011466;28;20061;-57
2021/03/27 00:26:35;;;;;;;30.88;17.55;;;;;;;;;;4991212;28;20053;-58
2021/03/27 00:29:16;;;;;;;28.17;16.17;;;;;;;;;;4990371;28;20046;-58
2021/03/27 00:31:53;;;;;;;30.38;18.60;;;;;;;;;;4991204;28;20039;-58
2021/03/27 00:34:22;;;;;;;31.10;18.85;;;;;;;;;;4991086;28;20156;-58
2021/03/27 00:36:51;;;;;;;35.60;18.98;;;;;;;;;;4991042;28;20037;-58
2021/03/27 00:39:36;;;;;;;30.08;18.23;;;;;;;;;;4989905;28;20545;-58
2021/03/27 00:42:04;;;;;;;31.70;18.45;;;;;;;;;;4991076;28;20032;-58
2021/03/27 00:44:37;;;;;;;34.15;18.73;;;;;;;;;;4990711;28;20065;-57
2021/03/27 00:47:04;;;;;;;31.55;19.05;;;;;;;;;;4991232;28;20077;-57
2021/03/27 00:49:35;;;;;;;30.50;19.70;;;;;;;;;;4989983;28;20030;-58
2021/03/27 00:52:05;;;;;;;32.22;18.65;;;;;;;;;;4991254;28;20096;-58
2021/03/27 00:54:33;;;;;;;30.85;18.02;;;;;;;;;;4990468;28;20041;-58
2021/03/27 00:57:01;;;;;;;35.10;20.55;;;;;;;;;;4990886;28;20041;-58
2021/03/27 00:59:32;;;;;;;30.60;18.33;;;;;;;;;;4990860;28;20411;-58
2021/03/27 01:02:00;;;;;;;34.30;20.08;;;;;;;;;;5006598;28;20053;-58
2021/03/27 01:04:30;;;;;;;30.48;19.35;;;;;;;;;;5008794;28;20038;-58
2021/03/27 01:06:58;;;;;;;32.28;19.90;;;;;;;;;;5012205;28;20479;-58
2021/03/27 01:09:33;;;;;;;33.25;19.23;;;;;;;;;;5011805;28;20057;-58
2021/03/27 01:12:03;;;;;;;31.40;19.88;;;;;;;;;;5012293;28;20026;-58
2021/03/27 01:14:31;;;;;;;31.48;19.85;;;;;;;;;;5012380;28;20487;-57
2021/03/27 01:16:58;;;;;;;36.55;20.40;;;;;;;;;;5012102;28;20018;-57
2021/03/27 01:19:38;;;;;;;38.38;19.30;;;;;;;;;;5012141;28;20022;-57
2021/03/27 01:22:06;;;;;;;31.55;20.00;;;;;;;;;;5012436;28;20129;-59
2021/03/27 01:24:33;;;;;;;30.88;20.58;;;;;;;;;;5012031;28;20029;-58
2021/03/27 01:27:04;;;;;;;35.13;19.55;;;;;;;;;;5012153;28;20022;-57
2021/03/27 01:29:35;;;;;;;30.77;18.75;;;;;;;;;;5009954;28;20046;-58
2021/03/27 01:32:08;;;;;;;30.23;17.98;;;;;;;;;;5012093;28;20061;-58
2021/03/27 01:34:43;;;;;;;32.65;20.52;;;;;;;;;;5010923;28;20026;-58
2021/03/27 01:37:12;;;;;;;33.13;18.73;;;;;;;;;;5012115;28;20018;-58
2021/03/27 01:39:38;;;;;;;;;;;;;;;;;;5012296;28;20038;-58
2021/03/27 01:42:07;;;;;;;31.38;18.55;;;;;;;;;;5012466;28;19913;-58
2021/03/27 01:44:39;;;;;;;32.70;19.88;;;;;;;;;;5011903;28;20044;-57
2021/03/27 01:47:08;;;;;;;30.88;19.77;;;;;;;;;;5012309;28;20022;-58
2021/03/27 01:49:44;;;;;;;30.58;20.02;;;;;;;;;;5011829;28;20156;-58
2021/03/27 01:52:34;;;;;;;32.22;18.90;;;;;;;;;;5014883;28;20029;-58
2021/03/27 01:55:04;;;;;;;28.83;18.27;;;;;;;;;;5015590;28;20028;-57
2021/03/27 01:57:34;;;;;;;29.92;18.70;;;;;;;;;;5015764;28;20036;-57
2021/03/27 02:00:05;;;;;;;32.75;20.85;;;;;;;;;;5015596;28;20022;-58
2021/03/27 02:02:36;;;;;;;33.10;20.75;;;;;;;;;;5016132;28;20032;-57
2021/03/27 02:05:05;;;;;;;31.95;18.65;;;;;;;;;;5015417;28;20022;-57
2021/03/27 02:07:37;;;;;;;34.22;21.92;;;;;;;;;;5015756;28;20483;-58
2021/03/27 02:10:03;;;;;;;33.55;19.27;;;;;;;;;;5015121;28;20088;-58
2021/03/27 02:12:48;;;;;;;31.30;19.17;;;;;;;;;;5015637;28;20018;-57
2021/03/27 02:15:21;;;;;;;32.97;19.15;;;;;;;;;;5015461;28;20522;-58
2021/03/27 02:17:56;;;;;;;27.80;17.23;;;;;;;;;;5015315;28;20022;-58
2021/03/27 02:20:37;;;;;;;30.90;18.63;;;;;;;;;;5015447;28;20039;-58
2021/03/27 02:23:22;;;;;;;32.72;18.92;;;;;;;;;;5015269;28;20026;-58
2021/03/27 02:26:08;;;;;;;27.85;18.45;;;;;;;;;;5015053;28;20037;-57
2021/03/27 02:28:43;;;;;;;28.33;17.90;;;;;;;;;;5014916;28;20050;-58
2021/03/27 02:31:18;;;;;;;30.45;18.13;;;;;;;;;;5002792;28;20026;-56
2021/03/27 02:34:03;;;;;;;27.58;18.02;;;;;;;;;;5015035;28;20474;-58
2021/03/27 02:36:41;;;;;;;30.05;18.65;;;;;;;;;;5015095;28;20021;-57
2021/03/27 02:39:13;;;;;;;29.42;19.52;;;;;;;;;;5015145;28;20022;-58
2021/03/27 02:41:48;;;;;;;33.58;19.92;;;;;;;;;;5015222;28;20033;-58
2021/03/27 02:44:16;;;;;;;35.22;19.33;;;;;;;;;;5014709;28;20022;-57
2021/03/27 02:46:43;;;;;;;31.25;18.23;;;;;;;;;;5015295;28;20065;-57
2021/03/27 02:49:27;;;;;;;30.20;19.23;;;;;;;;;;5009890;28;20194;-58
2021/03/27 02:51:59;;;;;;;30.98;18.52;;;;;;;;;;5003842;28;20033;-57
2021/03/27 02:54:28;;;;;;;32.85;18.58;;;;;;;;;;5014394;28;20034;-61
2021/03/27 02:56:59;;;;;;;29.63;18.55;;;;;;;;;;5014538;28;20022;-58
2021/03/27 02:59:43;;;;;;;26.08;18.45;;;;;;;;;;5014535;28;20022;-58
2021/03/27 03:02:36;;;;;;;26.88;17.00;;;;;;;;;;5014264;28;20423;-58
2021/03/27 03:05:17;;;;;;;27.13;18.17;;;;;;;;;;5014248;28;20081;-58
2021/03/27 03:07:52;;;;;;;28.05;17.65;;;;;;;;;;5014520;28;20092;-57
2021/03/27 03:10:28;;;;;;;30.58;18.55;;;;;;;;;;5014392;28;20481;-57
2021/03/27 03:12:57;;;;;;;31.00;18.67;;;;;;;;;;5014207;28;20064;-57
2021/03/27 03:15:26;;;;;;;26.23;17.20;;;;;;;;;;5000703;28;20423;-58
2021/03/27 03:17:52;;;;;;;;;;;;;;;;;;5019536;28;20026;-59
2021/03/27 03:20:36;;;;;;;26.42;16.90;;;;;;;;;;5021485;28;19928;-59
2021/03/27 03:23:08;;;;;;;32.17;18.63;;;;;;;;;;5014642;28;20026;-56
2021/03/27 03:25:38;;;;;;;37.13;24.65;;;;;;;;;;5013823;28;20026;-57
2021/03/27 03:28:10;;;;;;;52.97;30.80;;;;;;;;;;5014516;28;20087;-58
2021/03/27 03:30:36;;;;;;;50.95;31.70;;;;;;;;;;5014083;28;20036;-57
2021/03/27 03:33:18;;;;;;;52.00;31.38;;;;;;;;;;5011672;28;20018;-56
2021/03/27 03:35:54;;;;;;;51.42;30.15;;;;;;;;;;5013868;28;20030;-57
2021/03/27 03:38:32;;;;;;;54.67;32.65;;;;;;;;;;5011351;28;20102;-57
2021/03/27 03:41:04;;;;;;;53.17;32.17;;;;;;;;;;5013851;28;20030;-58
2021/03/27 03:43:33;;;;;;;56.80;33.00;;;;;;;;;;5012302;28;20116;-59
2021/03/27 03:46:14;;;;;;;56.30;32.22;;;;;;;;;;5017429;28;20056;-58
2021/03/27 03:48:47;;;;;;;61.00;35.17;;;;;;;;;;5017206;28;20241;-58
2021/03/27 03:51:17;;;;;;;59.78;33.50;;;;;;;;;;5017012;28;20583;-61
2021/03/27 03:54:15;;;;;;;64.20;35.85;;;;;;;;;;5017086;28;20037;-58
2021/03/27 03:57:02;;;;;;;61.75;34.70;;;;;;;;;;5033841;28;20045;-61
2021/03/27 03:59:32;;;;;;;66.45;37.33;;;;;;;;;;5032305;28;20042;-57
2021/03/27 04:02:05;;;;;;;68.35;39.13;;;;;;;;;;5030819;28;20021;-57
2021/03/27 04:04:33;;;;;;;64.20;37.83;;;;;;;;;;5030735;28;20149;-57
2021/03/27 04:07:07;;;;;;;63.73;37.57;;;;;;;;;;5030889;28;20041;-57
2021/03/27 04:09:36;;;;;;;69.30;38.92;;;;;;;;;;5030438;28;20311;-57
2021/03/27 04:12:17;;;;;;;74.15;40.50;;;;;;;;;;5030627;28;20116;-56
2021/03/27 04:14:49;;;;;;;79.35;40.65;;;;;;;;;;5030111;28;20087;-56
2021/03/27 04:17:17;;;;;;;75.65;42.40;;;;;;;;;;5030783;28;20095;-56
2021/03/27 04:19:46;;;;;;;75.80;41.20;;;;;;;;;;5030492;28;20124;-56
2021/03/27 04:22:17;;;;;;;73.47;39.90;;;;;;;;;;5030642;28;20502;-56
2021/03/27 04:24:55;;;;;;;71.60;39.60;;;;;;;;;;5030452;28;20077;-57
2021/03/27 04:27:29;;;;;;;64.40;38.25;;;;;;;;;;5030540;28;20033;-57
2021/03/27 04:30:02;;;;;;;74.70;41.80;;;;;;;;;;5030402;28;20079;-56
2021/03/27 04:32:38;;;;;;;72.07;42.55;;;;;;;;;;5010553;28;20045;-59
2021/03/27 04:35:04;;;;;;;73.80;42.28;;;;;;;;;;5010654;28;20033;-58
2021/03/27 04:37:33;;;;;;;83.63;45.30;;;;;;;;;;5013149;28;20022;-58
2021/03/27 04:40:12;;;;;;;91.05;47.95;;;;;;;;;;5012769;28;20515;-59
2021/03/27 04:42:41;;;;;;;89.90;49.20;;;;;;;;;;5014076;28;20026;-58
2021/03/27 04:45:07;;;;;;;;;;;;;;;;;;5014635;28;20024;-59
2021/03/27 04:47:35;;;;;;;94.97;47.65;;;;;;;;;;5014161;28;19905;-60
2021/03/27 04:50:01;;;;;;;91.68;51.85;;;;;;;;;;5013719;28;20443;-61
2021/03/27 04:52:33;;;;;;;149.15;106.88;;;;;;;;;;5013413;28;20018;-63
2021/03/27 04:55:12;;;;;;;145.93;92.85;;;;;;;;;;5013050;28;20057;-59
2021/03/27 04:57:43;;;;;;;92.35;52.67;;;;;;;;;;5013951;28;20030;-59
2021/03/27 05:00:21;;;;;;;117.63;76.00;;;;;;;;;;5013473;28;20018;-59
2021/03/27 05:02:53;;;;;;;96.38;53.28;;;;;;;;;;5012714;28;20104;-57
2021/03/27 05:05:26;;;;;;;109.90;58.30;;;;;;;;;;5012663;28;20021;-58
2021/03/27 05:08:00;;;;;;;94.40;53.58;;;;;;;;;;5012661;28;20045;-58
2021/03/27 05:10:29;;;;;;;90.00;51.08;;;;;;;;;;5012353;28;20542;-58
2021/03/27 05:13:21;;;;;;;87.10;49.72;;;;;;;;;;5012710;28;20493;-59
2021/03/27 05:15:49;;;;;;;85.15;49.45;;;;;;;;;;4990561;28;20038;-59
2021/03/27 05:18:28;;;;;;;87.60;50.28;;;;;;;;;;4990888;28;20050;-58
2021/03/27 05:21:05;;;;;;;86.82;50.40;;;;;;;;;;4990674;28;20031;-59
2021/03/27 05:23:38;;;;;;;89.30;48.97;;;;;;;;;;4990186;28;20042;-58
2021/03/27 05:26:23;;;;;;;91.22;51.53;;;;;;;;;;4993561;28;20055;-58
2021/03/27 05:28:54;;;;;;;86.97;50.38;;;;;;;;;;4994286;28;20045;-58
2021/03/27 05:31:36;;;;;;;89.32;50.35;;;;;;;;;;4981817;28;20477;-59
2021/03/27 05:34:25;;;;;;;89.45;52.05;;;;;;;;;;4994161;28;20042;-59
2021/03/27 05:36:51;;;;;;;88.72;51.05;;;;;;;;;;4917719;29;20088;-58
2021/03/27 05:39:32;;;;;;;93.03;54.83;;;;;;;;;;4916998;29;20393;-58
2021/03/27 05:41:58;;;;;;;92.78;51.28;;;;;;;;;;4917510;29;20032;-57
2021/03/27 05:44:43;;;;;;;90.50;50.80;;;;;;;;;;4915606;29;20568;-57
2021/03/27 05:47:15;;;;;;;95.55;52.97;;;;;;;;;;4898362;29;20488;-58
2021/03/27 05:49:41;;;;;;;91.28;50.70;;;;;;;;;;4900763;29;20588;-57
2021/03/27 05:52:09;;;;;;;91.20;54.80;;;;;;;;;;4922671;29;20047;-57
2021/03/27 05:54:54;;;;;;;91.15;53.25;;;;;;;;;;4950819;28;20040;-57
2021/03/27 05:57:26;;;;;;;88.63;51.88;;;;;;;;;;4955401;28;20050;-57
2021/03/27 06:00:16;;;;;;;89.78;54.42;;;;;;;;;;4954822;28;20023;-56
2021/03/27 06:02:44;;;;;;;92.43;52.13;;;;;;;;;;4954835;28;20043;-57
2021/03/27 06:05:29;;;;;;;96.82;52.85;;;;;;;;;;4951043;28;20038;-57
2021/03/27 06:08:15;;;;;;;84.05;49.42;;;;;;;;;;4947989;28;20083;-57
2021/03/27 06:11:10;;;;;;;87.55;50.55;;;;;;;;;;4938839;29;20138;-57
2021/03/27 06:13:45;;;;;;;92.93;51.47;;;;;;;;;;4974685;28;20030;-57
2021/03/27 06:16:14;;;;;;;94.40;51.45;;;;;;;;;;5015903;28;20037;-57
2021/03/27 06:18:46;;;;;;;85.13;49.10;;;;;;;;;;5015284;28;20041;-57
2021/03/27 06:21:31;;;;;;;157.63;107.93;;;;;;;;;;5015908;28;20022;-57
2021/03/27 06:24:20;;;;;;;86.60;54.03;;;;;;;;;;5015600;28;20227;-59
2021/03/27 06:26:46;;;;;;;90.28;52.30;;;;;;;;;;5012927;28;20113;-60
2021/03/27 06:29:27;;;;;;;79.35;48.50;;;;;;;;;;5012810;28;20077;-58
2021/03/27 06:31:56;;;;;;;83.35;52.67;;;;;;;;;;5012527;28;20503;-58
2021/03/27 06:34:40;;;;;;;87.93;53.00;;;;;;;;;;5012751;28;20439;-58
2021/03/27 06:37:25;;;;;;;82.82;49.50;;;;;;;;;;5012365;28;20121;-59
2021/03/27 06:39:57;;;;;;;80.60;49.80;;;;;;;;;;5013756;28;20042;-58
2021/03/27 06:42:42;;;;;;;78.82;51.03;;;;;;;;;;5012778;28;20592;-59
2021/03/27 06:45:08;;;;;;;77.65;46.10;;;;;;;;;;5012592;28;20072;-59
2021/03/27 06:47:51;;;;;;;83.43;48.50;;;;;;;;;;5012793;28;20029;-59
2021/03/27 06:50:35;;;;;;;80.28;50.05;;;;;;;;;;5000480;28;20042;-59
2021/03/27 06:53:01;;;;;;;153.68;109.50;;;;;;;;;;5012161;28;20512;-61
2021/03/27 06:55:42;;;;;;;183.00;151.57;;;;;;;;;;5018545;28;20030;-64
2021/03/27 06:58:26;;;;;;;85.65;55.47;;;;;;;;;;5017319;28;20030;-59
2021/03/27 07:01:04;;;;;;;77.57;50.10;;;;;;;;;;5017705;28;20088;-58
2021/03/27 07:03:56;;;;;;;82.90;49.10;;;;;;;;;;5013607;28;20037;-58
2021/03/27 07:06:50;;;;;;;76.10;46.08;;;;;;;;;;5014429;28;20026;-58
2021/03/27 07:09:34;;;;;;;82.95;51.70;;;;;;;;;;5014102;28;20054;-59
2021/03/27 07:12:19;;;;;;;78.63;50.85;;;;;;;;;;5014059;28;20120;-59
2021/03/27 07:14:57;;;;;;;73.18;47.97;;;;;;;;;;5013521;28;20037;-58
2021/03/27 07:17:39;;;;;;;87.20;52.67;;;;;;;;;;5011220;28;20077;-57
2021/03/27 07:20:24;;;;;;;80.90;51.22;;;;;;;;;;5014183;28;20030;-57
2021/03/27 07:23:02;;;;;;;76.50;47.97;;;;;;;;;;5014465;28;20034;-60
2021/03/27 07:25:35;;;;;;;87.68;53.05;;;;;;;;;;5014765;28;20034;-58
2021/03/27 07:28:07;;;;;;;85.88;52.08;;;;;;;;;;5013944;28;20084;-58
2021/03/27 07:30:43;;;;;;;89.68;52.35;;;;;;;;;;5013654;28;20038;-57
2021/03/27 07:33:15;;;;;;;86.43;52.33;;;;;;;;;;5013186;28;20065;-57
2021/03/27 07:35:41;;;;;;;89.85;60.03;;;;;;;;;;5014407;28;20057;-58
2021/03/27 07:38:26;;;;;;;84.95;53.30;;;;;;;;;;5014774;28;20029;-57
2021/03/27 07:41:02;;;;;;;84.85;52.60;;;;;;;;;;5014468;28;20030;-57
2021/03/27 07:43:47;;;;;;;94.63;55.15;;;;;;;;;;5014104;28;20026;-57
2021/03/27 07:46:19;;;;;;;88.78;55.88;;;;;;;;;;5012143;28;20025;-57
2021/03/27 07:49:08;;;;;;;85.80;56.38;;;;;;;;;;5012782;28;20038;-57
2021/03/27 07:51:52;;;;;;;87.32;56.55;;;;;;;;;;4972381;28;20110;-58
2021/03/27 07:54:21;;;;;;;86.25;62.33;;;;;;;;;;4970082;28;20412;-58
2021/03/27 07:57:06;;;;;;;83.68;51.03;;;;;;;;;;4972639;28;20054;-58
2021/03/27 07:59:50;;;;;;;80.10;49.80;;;;;;;;;;4971854;28;20073;-57
2021/03/27 08:02:25;;;;;;;83.32;49.35;;;;;;;;;;4971567;28;20058;-58
2021/03/27 08:05:02;;;;;;;77.82;47.03;;;;;;;;;;4971262;28;20123;-58
2021/03/27 08:07:47;;;;;;;75.10;49.75;;;;;;;;;;4971809;28;20023;-58
2021/03/27 08:10:31;;;;;;;80.50;47.47;;;;;;;;;;4971463;28;20050;-58
2021/03/27 08:13:03;;;;;;;77.18;48.38;;;;;;;;;;4987290;28;21018;-58
2021/03/27 08:15:47;;;;;;;76.18;47.30;;;;;;;;;;4971426;28;20031;-58
2021/03/27 08:18:33;;;;;;;73.32;50.30;;;;;;;;;;4972156;28;20428;-57
2021/03/27 08:20:59;;;;;;;71.95;45.75;;;;;;;;;;4968892;28;20031;-57
2021/03/27 08:23:40;;;;;;;71.18;45.05;;;;;;;;;;4971569;28;20035;-57
2021/03/27 08:26:16;;;;;;;70.25;42.92;;;;;;;;;;4962088;28;20027;-58
2021/03/27 08:28:51;;;;;;;67.32;41.05;;;;;;;;;;4993810;28;20088;-58
2021/03/27 08:31:36;;;;;;;69.05;42.22;;;;;;;;;;5011002;28;20312;-58
2021/03/27 08:34:21;;;;;;;71.35;41.25;;;;;;;;;;5013339;28;20081;-58
2021/03/27 08:36:53;;;;;;;71.30;42.03;;;;;;;;;;5014777;28;20030;-59
2021/03/27 08:39:36;;;;;;;75.00;45.25;;;;;;;;;;5012255;28;20033;-59
2021/03/27 08:42:08;;;;;;;55.00;36.72;;;;;;;;;;5015049;28;20030;-59
2021/03/27 08:44:37;;;;;;;57.20;36.75;;;;;;;;;;5015894;28;20449;-58
2021/03/27 08:47:19;;;;;;;64.65;41.70;;;;;;;;;;5015921;28;20153;-58
2021/03/27 08:50:14;;;;;;;52.03;36.95;;;;;;;;;;5005616;28;20070;-58
2021/03/27 08:52:51;;;;;;;52.10;35.88;;;;;;;;;;5006324;28;20038;-58
2021/03/27 08:55:36;;;;;;;54.05;35.50;;;;;;;;;;5000741;28;20037;-57
2021/03/27 08:58:20;;;;;;;61.13;39.83;;;;;;;;;;4997298;28;20029;-57
2021/03/27 09:01:05;;;;;;;62.65;36.60;;;;;;;;;;5000175;28;20037;-57
2021/03/27 09:03:40;;;;;;;57.20;34.92;;;;;;;;;;5012319;28;20028;-58
2021/03/27 09:06:25;;;;;;;61.78;37.33;;;;;;;;;;5010044;28;20018;-58
2021/03/27 09:09:10;;;;;;;58.33;34.38;;;;;;;;;;5011983;28;20144;-57
2021/03/27 09:11:59;;;;;;;48.50;33.42;;;;;;;;;;5012270;28;20057;-57
2021/03/27 09:14:53;;;;;;;52.10;33.92;;;;;;;;;;5012021;28;20034;-57
2021/03/27 09:17:43;;;;;;;69.75;46.38;;;;;;;;;;5012253;28;20037;-57
2021/03/27 09:20:18;;;;;;;52.15;32.30;;;;;;;;;;4990347;28;20040;-57
2021/03/27 09:22:47;;;;;;;51.45;33.88;;;;;;;;;;4990570;28;20026;-57
2021/03/27 09:25:13;;;;;;;;;;;;;;;;;;4990552;28;20145;-58
2021/03/27 09:27:46;;;;;;;47.40;29.50;;;;;;;;;;4985636;28;19989;-57
2021/03/27 09:30:12;;;;;;;43.75;30.08;;;;;;;;;;4990214;28;20042;-58
2021/03/27 09:32:53;;;;;;;52.90;30.42;;;;;;;;;;4990063;28;20026;-57
2021/03/27 09:35:25;;;;;;;43.78;28.35;;;;;;;;;;4990297;28;20045;-59
2021/03/27 09:38:10;;;;;;;41.13;27.55;;;;;;;;;;4990054;28;20126;-57
2021/03/27 09:40:54;;;;;;;41.97;30.25;;;;;;;;;;4990456;28;20121;-57
2021/03/27 09:43:39;;;;;;;44.72;29.75;;;;;;;;;;4990204;28;20496;-58
2021/03/27 09:46:20;;;;;;;42.25;27.67;;;;;;;;;;4990253;28;20112;-57
2021/03/27 09:49:05;;;;;;;42.13;28.20;;;;;;;;;;4989999;28;20030;-58
2021/03/27 09:51:46;;;;;;;48.55;29.50;;;;;;;;;;4989862;28;20086;-57
2021/03/27 09:54:15;;;;;;;40.97;28.90;;;;;;;;;;4982902;28;20085;-58
2021/03/27 09:56:50;;;;;;;51.00;31.05;;;;;;;;;;4996500;28;20045;-58
2021/03/27 09:59:24;;;;;;;53.05;31.35;;;;;;;;;;5011776;28;20033;-56
2021/03/27 10:01:51;;;;;;;51.63;32.33;;;;;;;;;;5011607;28;20021;-58
2021/03/27 10:04:23;;;;;;;45.55;30.15;;;;;;;;;;5009427;28;20450;-57
2021/03/27 10:06:56;;;;;;;44.60;27.80;;;;;;;;;;4994876;28;20367;-58
2021/03/27 10:09:38;;;;;;;43.83;29.55;;;;;;;;;;4994271;28;20126;-58
2021/03/27 10:12:13;;;;;;;48.58;31.02;;;;;;;;;;4995950;28;20030;-57
2021/03/27 10:14:47;;;;;;;44.47;28.92;;;;;;;;;;5012522;28;20061;-57
2021/03/27 10:17:31;;;;;;;44.75;29.40;;;;;;;;;;5015440;28;20475;-57
2021/03/27 10:20:21;;;;;;;39.65;28.52;;;;;;;;;;5015179;28;20026;-56
2021/03/27 10:22:50;;;;;;;45.00;29.17;;;;;;;;;;5008519;28;20088;-56
2021/03/27 10:25:24;;;;;;;30.67;18.80;;;;;;;;;;5014985;28;20523;-57
2021/03/27 10:27:53;;;;;;;28.52;17.83;;;;;;;;;;5015135;28;20100;-56
2021/03/27 10:30:29;;;;;;;29.98;17.95;;;;;;;;;;5012811;28;20037;-58
2021/03/27 10:32:55;;;;;;;25.25;15.45;;;;;;;;;;5014751;28;20021;-59
2021/03/27 10:35:40;;;;;;;25.60;16.08;;;;;;;;;;5015761;28;20382;-57
2021/03/27 10:38:06;;;;;;;26.70;16.38;;;;;;;;;;5015076;28;20463;-57
2021/03/27 10:40:32;;;;;;;20.38;14.98;;;;;;;;;;5014937;28;20504;-56
2021/03/27 10:43:16;;;;;;;24.75;15.68;;;;;;;;;;5014953;28;20033;-55
2021/03/27 10:45:52;;;;;;;21.98;16.85;;;;;;;;;;5015058;28;20044;-57
2021/03/27 10:48:25;;;;;;;26.52;14.55;;;;;;;;;;4999450;28;20029;-56
2021/03/27 10:51:09;;;;;;;22.75;15.82;;;;;;;;;;5001818;28;20057;-57
2021/03/27 10:54:02;;;;;;;21.70;15.50;;;;;;;;;;5005834;28;20084;-56
2021/03/27 10:56:36;;;;;;;20.70;14.25;;;;;;;;;;5006161;28;20034;-59
2021/03/27 10:59:12;;;;;;;21.98;14.70;;;;;;;;;;5014291;28;20064;-59
2021/03/27 11:01:45;;;;;;;22.08;15.35;;;;;;;;;;5014724;28;20399;-60
2021/03/27 11:04:29;;;;;;;21.77;13.60;;;;;;;;;;5013953;28;20069;-61
2021/03/27 11:07:13;;;;;;;20.67;13.30;;;;;;;;;;4998851;28;20033;-60
2021/03/27 11:09:40;;;;;;;21.85;14.00;;;;;;;;;;5002647;28;20039;-60
2021/03/27 11:12:15;;;;;;;19.88;13.80;;;;;;;;;;5008790;28;20026;-61
2021/03/27 11:14:50;;;;;;;23.63;14.10;;;;;;;;;;4995335;28;20487;-60
2021/03/27 11:17:39;;;;;;;19.45;13.82;;;;;;;;;;5001799;28;20049;-61
2021/03/27 11:20:11;;;;;;;20.55;13.10;;;;;;;;;;5002955;28;20019;-60
2021/03/27 11:22:37;;;;;;;20.02;13.23;;;;;;;;;;5000188;28;20096;-60
2021/03/27 11:25:15;;;;;;;19.95;12.35;;;;;;;;;;5003011;28;20477;-64
2021/03/27 11:27:50;;;;;;;19.08;12.10;;;;;;;;;;5009932;28;20034;-62
2021/03/27 11:30:19;;;;;;;18.17;12.90;;;;;;;;;;5009525;28;20069;-58
2021/03/27 11:32:59;;;;;;;22.85;12.45;;;;;;;;;;5005611;28;20033;-59
2021/03/27 11:35:28;;;;;;;16.10;11.15;;;;;;;;;;4999798;28;20106;-60
2021/03/27 11:38:00;;;;;;;15.55;11.52;;;;;;;;;;5010756;28;20029;-60
2021/03/27 11:40:56;;;;;;;19.52;10.70;;;;;;;;;;5002492;28;20491;-59
2021/03/27 11:43:25;;;;;;;17.20;11.50;;;;;;;;;;5009667;28;20038;-61
2021/03/27 11:46:05;;;;;;;19.48;11.85;;;;;;;;;;5009010;28;20486;-61
2021/03/27 11:48:52;;;;;;;17.88;11.77;;;;;;;;;;5010053;28;20507;-61
2021/03/27 11:51:37;;;;;;;18.55;12.05;;;;;;;;;;5009657;28;20029;-60
2021/03/27 11:54:09;;;;;;;18.13;12.13;;;;;;;;;;5010894;28;20468;-59
2021/03/27 11:56:53;;;;;;;15.98;11.18;;;;;;;;;;5008874;28;20097;-60
2021/03/27 12:02:14;;;;;;;21.50;11.90;;;;;;;;;;5011705;28;20037;-61
2021/03/27 12:04:55;;;;;;;17.02;12.48;;;;;;;;;;5009663;28;20088;-61
2021/03/27 12:07:34;;;;;;;19.83;10.13;;;;;;;;;;5007479;28;20052;-60
2021/03/27 12:10:04;;;;;;;16.08;11.10;;;;;;;;;;5008824;28;20096;-60
2021/03/27 12:12:48;;;;;;;19.17;10.32;;;;;;;;;;5010425;28;20037;-60
2021/03/27 12:15:17;;;;;;;19.15;10.32;;;;;;;;;;5006177;28;20029;-60
2021/03/27 12:17:59;;;;;;;14.50;9.52;;;;;;;;;;5010048;28;20386;-60
2021/03/27 12:20:33;;;;;;;17.65;10.45;;;;;;;;;;5005953;28;20030;-59
2021/03/27 12:23:18;;;;;;;14.13;9.55;;;;;;;;;;5005281;28;20021;-59
2021/03/27 12:25:46;;;;;;;14.05;9.45;;;;;;;;;;4998943;28;20357;-60
2021/03/27 12:28:21;;;;;;;14.65;9.77;;;;;;;;;;4995622;28;20030;-60
2021/03/27 12:30:47;;;;;;;15.23;9.27;;;;;;;;;;4996249;28;20046;-59
2021/03/27 12:33:16;;;;;;;17.17;9.63;;;;;;;;;;5006778;28;20025;-61
2021/03/27 12:35:52;;;;;;;11.43;9.40;;;;;;;;;;4997440;28;20457;-60
2021/03/27 12:38:23;;;;;;;14.25;8.85;;;;;;;;;;5004329;28;20030;-59
2021/03/27 12:41:11;;;;;;;13.75;8.98;;;;;;;;;;5011781;28;20038;-60
2021/03/27 12:43:44;;;;;;;14.20;8.65;;;;;;;;;;5011651;28;20057;-62
2021/03/27 12:46:18;;;;;;;12.18;8.52;;;;;;;;;;5012395;28;20353;-61
2021/03/27 12:48:44;;;;;;;13.02;8.07;;;;;;;;;;5012652;28;20034;-62
2021/03/27 12:51:29;;;;;;;11.80;8.48;;;;;;;;;;5012637;28;20029;-60
2021/03/27 12:54:07;;;;;;;12.45;7.45;;;;;;;;;;5013288;28;20014;-64
2021/03/27 12:56:33;;;;;;;13.65;7.55;;;;;;;;;;5012928;28;20475;-64
2021/03/27 12:59:06;;;;;;;10.50;7.18;;;;;;;;;;5012397;28;20034;-63
2021/03/27 13:01:32;;;;;;;13.93;7.78;;;;;;;;;;5014387;28;20061;-58
2021/03/27 13:04:18;;;;;;;11.18;8.02;;;;;;;;;;5014682;28;20523;-61
2021/03/27 13:07:03;;;;;;;10.95;7.45;;;;;;;;;;5010501;28;20026;-61
2021/03/27 13:09:55;;;;;;;12.02;7.65;;;;;;;;;;5012488;28;20089;-63
2021/03/27 13:12:24;;;;;;;8.98;6.97;;;;;;;;;;5012624;28;20145;-63
2021/03/27 13:15:09;;;;;;;10.75;7.38;;;;;;;;;;5011979;28;20057;-60
2021/03/27 13:17:35;;;;;;;8.52;6.75;;;;;;;;;;5012505;28;20088;-60
2021/03/27 13:20:01;;;;;;;11.10;6.72;;;;;;;;;;5012236;28;20030;-62
2021/03/27 13:22:34;;;;;;;9.63;7.28;;;;;;;;;;5012203;28;20014;-61
2021/03/27 13:25:19;;;;;;;8.20;6.57;;;;;;;;;;5008312;28;20027;-61
2021/03/27 13:27:53;;;;;;;11.00;7.15;;;;;;;;;;4999103;28;20467;-65
2021/03/27 13:30:21;;;;;;;11.57;7.43;;;;;;;;;;5011421;28;20034;-58
2021/03/27 13:33:16;;;;;;;10.15;7.20;;;;;;;;;;5012859;28;20053;-58
2021/03/27 13:35:51;;;;;;;9.07;7.40;;;;;;;;;;5010704;28;20049;-63
2021/03/27 13:38:36;;;;;;;12.15;7.22;;;;;;;;;;5009887;28;20030;-58
2021/03/27 13:41:10;;;;;;;9.23;7.10;;;;;;;;;;5012579;28;20189;-61
2021/03/27 13:43:44;;;;;;;15.50;7.82;;;;;;;;;;5013476;28;20061;-60
2021/03/27 13:46:24;;;;;;;9.93;7.28;;;;;;;;;;5015061;28;20029;-62
2021/03/27 13:48:50;;;;;;;14.10;7.95;;;;;;;;;;5013331;28;20034;-61
2021/03/27 13:51:22;;;;;;;13.18;6.47;;;;;;;;;;5013542;28;20026;-59
2021/03/27 13:54:06;;;;;;;8.68;7.00;;;;;;;;;;5013760;28;20030;-60
2021/03/27 13:56:35;;;;;;;11.23;7.25;;;;;;;;;;5013205;28;20041;-60
2021/03/27 13:59:04;;;;;;;9.18;6.25;;;;;;;;;;5012628;28;20038;-61
2021/03/27 14:01:35;;;;;;;9.88;6.63;;;;;;;;;;5012976;28;20052;-61
2021/03/27 14:04:04;;;;;;;8.35;6.80;;;;;;;;;;5012810;28;20531;-63
2021/03/27 14:06:30;;;;;;;;;;;;;;;;;;5013130;28;20069;-61
2021/03/27 14:09:02;;;;;;;7.20;6.15;;;;;;;;;;5012609;28;19925;-61
2021/03/27 14:11:32;;;;;;;9.35;6.53;;;;;;;;;;5013055;28;20391;-61
2021/03/27 14:14:03;;;;;;;8.50;5.55;;;;;;;;;;4997636;28;20046;-61
2021/03/27 14:16:39;;;;;;;7.35;5.63;;;;;;;;;;4998573;28;20030;-61
2021/03/27 14:19:11;;;;;;;6.47;5.68;;;;;;;;;;4996509;28;20077;-63
2021/03/27 14:21:56;;;;;;;10.00;6.07;;;;;;;;;;4997669;28;20558;-60
2021/03/27 14:24:30;;;;;;;7.60;5.90;;;;;;;;;;4995852;28;20030;-61
2021/03/27 14:27:17;;;;;;;6.78;5.53;;;;;;;;;;4995579;28;20029;-59
2021/03/27 14:29:52;;;;;;;5.85;4.82;;;;;;;;;;5012706;28;20085;-62
2021/03/27 14:32:18;;;;;;;7.85;5.68;;;;;;;;;;5008450;28;20489;-58
2021/03/27 14:35:00;;;;;;;7.25;5.38;;;;;;;;;;4996856;28;20034;-60
2021/03/27 14:37:49;;;;;;;6.43;4.75;;;;;;;;;;5013586;28;20068;-61
2021/03/27 14:40:15;;;;;;;5.63;4.70;;;;;;;;;;5003322;28;20444;-62
2021/03/27 14:43:04;;;;;;;9.00;6.13;;;;;;;;;;5014891;28;20490;-59
2021/03/27 14:45:49;;;;;;;8.18;5.55;;;;;;;;;;5010682;28;20147;-60
2021/03/27 14:48:15;;;;;;;7.45;5.13;;;;;;;;;;5014159;28;20029;-62
2021/03/27 14:51:00;;;;;;;6.53;4.57;;;;;;;;;;5014678;28;20104;-60
2021/03/27 14:53:44;;;;;;;6.55;4.57;;;;;;;;;;5014553;28;20028;-60
2021/03/27 14:56:22;;;;;;;6.70;4.68;;;;;;;;;;5014762;28;20538;-60
2021/03/27 14:58:57;;;;;;;11.88;5.53;;;;;;;;;;5013570;28;20034;-60
2021/03/27 15:01:53;;;;;;;7.25;4.63;;;;;;;;;;5007629;28;20026;-61
2021/03/27 15:04:24;;;;;;;5.72;4.43;;;;;;;;;;4969918;28;20039;-61
2021/03/27 15:06:53;;;;;;;7.05;4.35;;;;;;;;;;4972975;28;20126;-61
2021/03/27 15:09:28;;;;;;;5.75;4.35;;;;;;;;;;4972746;28;20053;-61
2021/03/27 15:11:54;;;;;;;6.60;4.63;;;;;;;;;;4974397;28;20362;-63
2021/03/27 15:14:22;;;;;;;6.30;5.10;;;;;;;;;;4971725;28;20484;-62
2021/03/27 15:17:05;;;;;;;8.48;5.20;;;;;;;;;;4973026;28;20507;-60